sensor_id;sensor_type;location;lat;lon;timestamp;pressure;altitude;pressure_sealevel;temperature
65316;BMP280;51920;53.952;10.292;2022-09-17T00:01:48;99877.91;;;11.79
65316;BMP280;51920;53.952;10.292;2022-09-17T00:04:13;99872.03;;;11.84
65316;BMP280;51920;53.952;10.292;2022-09-17T00:06:39;99878.94;;;11.89
65316;BMP280;51920;53.952;10.292;2022-09-17T00:09:05;99883.16;;;11.93
65316;BMP280;51920;53.952;10.292;2022-09-17T00:11:33;99884.31;;;11.96
65316;BMP280;51920;53.952;10.292;2022-09-17T00:14:00;99879.63;;;11.96
65316;BMP280;51920;53.952;10.292;2022-09-17T00:16:33;99885.00;;;12.00
65316;BMP280;51920;53.952;10.292;2022-09-17T00:18:59;99883.41;;;12.02
65316;BMP280;51920;53.952;10.292;2022-09-17T00:21:25;99881.53;;;11.99
65316;BMP280;51920;53.952;10.292;2022-09-17T00:24:03;99882.19;;;12.07
65316;BMP280;51920;53.952;10.292;2022-09-17T00:26:31;99892.25;;;12.10
65316;BMP280;51920;53.952;10.292;2022-09-17T00:28:57;99885.97;;;12.13
65316;BMP280;51920;53.952;10.292;2022-09-17T00:31:23;99896.81;;;12.13
65316;BMP280;51920;53.952;10.292;2022-09-17T00:33:49;99891.41;;;12.13
65316;BMP280;51920;53.952;10.292;2022-09-17T00:36:15;99892.56;;;12.16
65316;BMP280;51920;53.952;10.292;2022-09-17T00:38:41;99896.34;;;12.18
65316;BMP280;51920;53.952;10.292;2022-09-17T00:41:08;99890.16;;;12.18
65316;BMP280;51920;53.952;10.292;2022-09-17T00:43:42;99895.56;;;12.21
65316;BMP280;51920;53.952;10.292;2022-09-17T00:46:17;99891.28;;;12.20
65316;BMP280;51920;53.952;10.292;2022-09-17T00:48:44;99897.13;;;12.22
65316;BMP280;51920;53.952;10.292;2022-09-17T00:51:13;99898.97;;;12.25
65316;BMP280;51920;53.952;10.292;2022-09-17T00:53:40;99904.84;;;12.24
65316;BMP280;51920;53.952;10.292;2022-09-17T00:56:10;99897.06;;;12.26
65316;BMP280;51920;53.952;10.292;2022-09-17T00:58:38;99908.34;;;12.24
65316;BMP280;51920;53.952;10.292;2022-09-17T01:01:03;99903.63;;;12.25
65316;BMP280;51920;53.952;10.292;2022-09-17T01:03:30;99913.56;;;12.39
65316;BMP280;51920;53.952;10.292;2022-09-17T01:17:14;99902.81;;;12.32
65316;BMP280;51920;53.952;10.292;2022-09-17T01:22:50;99896.16;;;12.33
65316;BMP280;51920;53.952;10.292;2022-09-17T01:25:51;99901.53;;;12.36
65316;BMP280;51920;53.952;10.292;2022-09-17T01:28:43;99902.75;;;12.35
65316;BMP280;51920;53.952;10.292;2022-09-17T01:31:19;99906.63;;;12.34
65316;BMP280;51920;53.952;10.292;2022-09-17T01:34:02;99903.91;;;12.34
65316;BMP280;51920;53.952;10.292;2022-09-17T01:37:19;99903.50;;;12.36
65316;BMP280;51920;53.952;10.292;2022-09-17T01:39:32;99905.31;;;12.46
65316;BMP280;51920;53.952;10.292;2022-09-17T01:42:13;99908.94;;;12.36
65316;BMP280;51920;53.952;10.292;2022-09-17T01:44:46;99906.28;;;12.32
65316;BMP280;51920;53.952;10.292;2022-09-17T01:47:19;99907.00;;;12.33
65316;BMP280;51920;53.952;10.292;2022-09-17T01:49:46;99913.66;;;12.32
65316;BMP280;51920;53.952;10.292;2022-09-17T01:52:13;99914.81;;;12.31
65316;BMP280;51920;53.952;10.292;2022-09-17T01:54:45;99910.13;;;12.35
65316;BMP280;51920;53.952;10.292;2022-09-17T01:57:35;99911.72;;;12.32
65316;BMP280;51920;53.952;10.292;2022-09-17T02:00:10;99906.31;;;12.29
65316;BMP280;51920;53.952;10.292;2022-09-17T02:03:07;99911.38;;;12.27
65316;BMP280;51920;53.952;10.292;2022-09-17T02:05:47;99912.16;;;12.27
65316;BMP280;51920;53.952;10.292;2022-09-17T02:08:21;99919.91;;;12.29
65316;BMP280;51920;53.952;10.292;2022-09-17T02:10:51;99911.75;;;12.29
65316;BMP280;51920;53.952;10.292;2022-09-17T02:13:25;99914.88;;;12.27
65316;BMP280;51920;53.952;10.292;2022-09-17T02:16:15;99916.88;;;12.23
65316;BMP280;51920;53.952;10.292;2022-09-17T02:18:48;99911.44;;;12.23
65316;BMP280;51920;53.952;10.292;2022-09-17T02:21:39;99912.22;;;12.23
65316;BMP280;51920;53.952;10.292;2022-09-17T02:24:26;99921.94;;;12.21
65316;BMP280;51920;53.952;10.292;2022-09-17T02:26:59;99919.59;;;12.23
65316;BMP280;51920;53.952;10.292;2022-09-17T02:29:38;99918.88;;;12.19
65316;BMP280;51920;53.952;10.292;2022-09-17T02:32:06;99920.47;;;12.16
65316;BMP280;51920;53.952;10.292;2022-09-17T02:34:32;99925.78;;;12.23
65316;BMP280;51920;53.952;10.292;2022-09-17T02:36:58;99928.19;;;12.18
65316;BMP280;51920;53.952;10.292;2022-09-17T02:39:24;99922.81;;;12.14
65316;BMP280;51920;53.952;10.292;2022-09-17T02:44:45;99929.91;;;12.08
65316;BMP280;51920;53.952;10.292;2022-09-17T02:47:37;99926.84;;;12.02
65316;BMP280;51920;53.952;10.292;2022-09-17T02:50:35;99926.19;;;11.95
65316;BMP280;51920;53.952;10.292;2022-09-17T02:53:21;99924.63;;;11.94
65316;BMP280;51920;53.952;10.292;2022-09-17T02:58:33;99923.56;;;11.88
65316;BMP280;51920;53.952;10.292;2022-09-17T03:01:06;99919.66;;;11.89
65316;BMP280;51920;53.952;10.292;2022-09-17T03:03:38;99920.94;;;11.80
65316;BMP280;51920;53.952;10.292;2022-09-17T03:06:04;99920.09;;;11.83
65316;BMP280;51920;53.952;10.292;2022-09-17T03:08:35;99923.97;;;11.82
65316;BMP280;51920;53.952;10.292;2022-09-17T03:11:02;99913.94;;;11.79
65316;BMP280;51920;53.952;10.292;2022-09-17T03:13:30;99918.63;;;11.75
65316;BMP280;51920;53.952;10.292;2022-09-17T03:15:56;99918.63;;;11.75
65316;BMP280;51920;53.952;10.292;2022-09-17T03:18:22;99912.84;;;11.73
65316;BMP280;51920;53.952;10.292;2022-09-17T03:20:48;99917.19;;;11.67
65316;BMP280;51920;53.952;10.292;2022-09-17T03:23:13;99916.88;;;11.61
65316;BMP280;51920;53.952;10.292;2022-09-17T03:25:38;99921.97;;;11.56
65316;BMP280;51920;53.952;10.292;2022-09-17T03:28:04;99911.63;;;11.44
65316;BMP280;51920;53.952;10.292;2022-09-17T03:30:29;99917.06;;;11.44
65316;BMP280;51920;53.952;10.292;2022-09-17T03:32:55;99915.22;;;11.33
65316;BMP280;51920;53.952;10.292;2022-09-17T03:35:20;99914.50;;;11.29
65316;BMP280;51920;53.952;10.292;2022-09-17T03:37:45;99918.00;;;11.26
65316;BMP280;51920;53.952;10.292;2022-09-17T03:40:11;99919.59;;;11.24
65316;BMP280;51920;53.952;10.292;2022-09-17T03:42:37;99923.09;;;11.20
65316;BMP280;51920;53.952;10.292;2022-09-17T03:45:02;99917.72;;;11.17
65316;BMP280;51920;53.952;10.292;2022-09-17T03:47:28;99912.31;;;11.13
65316;BMP280;51920;53.952;10.292;2022-09-17T03:49:53;99911.63;;;11.06
65316;BMP280;51920;53.952;10.292;2022-09-17T03:52:18;99902.44;;;10.96
65316;BMP280;51920;53.952;10.292;2022-09-17T03:54:44;99910.13;;;10.97
65316;BMP280;51920;53.952;10.292;2022-09-17T03:57:09;99919.44;;;10.96
65316;BMP280;51920;53.952;10.292;2022-09-17T03:59:35;99926.44;;;10.94
65316;BMP280;51920;53.952;10.292;2022-09-17T04:02:00;99914.06;;;10.89
65316;BMP280;51920;53.952;10.292;2022-09-17T04:04:25;99917.94;;;10.95
65316;BMP280;51920;53.952;10.292;2022-09-17T04:06:51;99918.72;;;10.89
65316;BMP280;51920;53.952;10.292;2022-09-17T04:09:16;99918.75;;;10.85
65316;BMP280;51920;53.952;10.292;2022-09-17T04:11:42;99915.31;;;10.81
65316;BMP280;51920;53.952;10.292;2022-09-17T04:14:07;99904.91;;;10.72
65316;BMP280;51920;53.952;10.292;2022-09-17T04:16:32;99917.31;;;10.73
65316;BMP280;51920;53.952;10.292;2022-09-17T04:18:58;99920.44;;;10.68
65316;BMP280;51920;53.952;10.292;2022-09-17T04:21:23;99928.16;;;10.70
65316;BMP280;51920;53.952;10.292;2022-09-17T04:23:49;99923.97;;;10.62
65316;BMP280;51920;53.952;10.292;2022-09-17T04:26:14;99931.31;;;10.65
65316;BMP280;51920;53.952;10.292;2022-09-17T04:28:40;99922.03;;;10.59
65316;BMP280;51920;53.952;10.292;2022-09-17T04:31:05;99932.50;;;10.60
65316;BMP280;51920;53.952;10.292;2022-09-17T04:33:30;99930.94;;;10.55
65316;BMP280;51920;53.952;10.292;2022-09-17T04:35:56;99912.91;;;10.38
65316;BMP280;51920;53.952;10.292;2022-09-17T04:38:21;99949.88;;;10.59
65316;BMP280;51920;53.952;10.292;2022-09-17T04:40:46;99942.19;;;10.57
65316;BMP280;51920;53.952;10.292;2022-09-17T04:43:12;99947.59;;;10.61
65316;BMP280;51920;53.952;10.292;2022-09-17T04:45:38;99934.88;;;10.54
65316;BMP280;51920;53.952;10.292;2022-09-17T04:48:03;99947.59;;;10.57
65316;BMP280;51920;53.952;10.292;2022-09-17T04:50:29;99944.47;;;10.55
65316;BMP280;51920;53.952;10.292;2022-09-17T04:52:55;99943.00;;;10.54
65316;BMP280;51920;53.952;10.292;2022-09-17T04:55:21;99938.31;;;10.55
65316;BMP280;51920;53.952;10.292;2022-09-17T04:57:47;99933.66;;;10.55
65316;BMP280;51920;53.952;10.292;2022-09-17T05:00:14;99935.63;;;10.51
65316;BMP280;51920;53.952;10.292;2022-09-17T05:02:46;99936.81;;;10.50
65316;BMP280;51920;53.952;10.292;2022-09-17T05:05:13;99942.25;;;10.43
65316;BMP280;51920;53.952;10.292;2022-09-17T05:07:39;99939.16;;;10.45
65316;BMP280;51920;53.952;10.292;2022-09-17T05:10:05;99941.09;;;10.44
65316;BMP280;51920;53.952;10.292;2022-09-17T05:12:31;99938.44;;;10.37
65316;BMP280;51920;53.952;10.292;2022-09-17T05:14:56;99955.41;;;10.45
65316;BMP280;51920;53.952;10.292;2022-09-17T05:17:21;99938.44;;;10.37
65316;BMP280;51920;53.952;10.292;2022-09-17T05:19:47;99950.78;;;10.38
65316;BMP280;51920;53.952;10.292;2022-09-17T05:22:12;99944.56;;;10.41
65316;BMP280;51920;53.952;10.292;2022-09-17T05:24:37;99937.69;;;10.37
65316;BMP280;51920;53.952;10.292;2022-09-17T05:27:05;99946.13;;;10.46
65316;BMP280;51920;53.952;10.292;2022-09-17T05:29:31;99955.41;;;10.45
65316;BMP280;51920;53.952;10.292;2022-09-17T05:31:56;99955.75;;;10.47
65316;BMP280;51920;53.952;10.292;2022-09-17T05:34:21;99944.19;;;10.39
65316;BMP280;51920;53.952;10.292;2022-09-17T05:36:47;99957.69;;;10.46
65316;BMP280;51920;53.952;10.292;2022-09-17T05:39:13;99967.75;;;10.49
65316;BMP280;51920;53.952;10.292;2022-09-17T05:41:38;99958.47;;;10.47
65316;BMP280;51920;53.952;10.292;2022-09-17T05:44:04;99963.44;;;10.55
65316;BMP280;51920;53.952;10.292;2022-09-17T05:46:29;99957.25;;;10.59
65316;BMP280;51920;53.952;10.292;2022-09-17T05:48:55;99968.41;;;10.64
65316;BMP280;51920;53.952;10.292;2022-09-17T05:51:21;99968.41;;;10.68
65316;BMP280;51920;53.952;10.292;2022-09-17T05:53:46;99955.63;;;10.72
65316;BMP280;51920;53.952;10.292;2022-09-17T05:56:11;99972.13;;;10.88
65316;BMP280;51920;53.952;10.292;2022-09-17T05:58:37;99967.47;;;10.96
65316;BMP280;51920;53.952;10.292;2022-09-17T06:01:02;99972.00;;;11.10
65316;BMP280;51920;53.952;10.292;2022-09-17T06:03:28;99980.31;;;11.30
65316;BMP280;51920;53.952;10.292;2022-09-17T06:05:56;99977.97;;;11.35
65316;BMP280;51920;53.952;10.292;2022-09-17T06:08:23;99981.09;;;11.34
65316;BMP280;51920;53.952;10.292;2022-09-17T06:10:49;99977.59;;;11.30
65316;BMP280;51920;53.952;10.292;2022-09-17T06:13:16;99979.56;;;11.29
65316;BMP280;51920;53.952;10.292;2022-09-17T06:15:42;99989.47;;;11.47
65316;BMP280;51920;53.952;10.292;2022-09-17T06:18:07;99978.78;;;11.70
65316;BMP280;51920;53.952;10.292;2022-09-17T06:20:32;99989.75;;;11.94
65316;BMP280;51920;53.952;10.292;2022-09-17T06:22:58;99976.03;;;12.08
65316;BMP280;51920;53.952;10.292;2022-09-17T06:25:24;99984.97;;;12.36
65316;BMP280;51920;53.952;10.292;2022-09-17T06:27:50;99996.16;;;12.68
65316;BMP280;51920;53.952;10.292;2022-09-17T06:30:16;99990.56;;;12.79
65316;BMP280;51920;53.952;10.292;2022-09-17T06:32:41;99990.06;;;12.88
65316;BMP280;51920;53.952;10.292;2022-09-17T06:35:07;99995.59;;;13.04
65316;BMP280;51920;53.952;10.292;2022-09-17T06:37:33;100003.03;;;13.24
65316;BMP280;51920;53.952;10.292;2022-09-17T06:39:58;99996.34;;;13.28
65316;BMP280;51920;53.952;10.292;2022-09-17T06:42:25;99994.41;;;13.49
65316;BMP280;51920;53.952;10.292;2022-09-17T06:44:51;100009.19;;;13.71
65316;BMP280;51920;53.952;10.292;2022-09-17T06:47:16;100006.59;;;13.84
65316;BMP280;51920;53.952;10.292;2022-09-17T06:49:42;100009.44;;;13.97
65316;BMP280;51920;53.952;10.292;2022-09-17T06:52:07;100006.88;;;13.90
65316;BMP280;51920;53.952;10.292;2022-09-17T06:54:33;100019.03;;;14.05
65316;BMP280;51920;53.952;10.292;2022-09-17T06:56:58;100000.56;;;14.13
65316;BMP280;51920;53.952;10.292;2022-09-17T06:59:23;100013.16;;;14.07
65316;BMP280;51920;53.952;10.292;2022-09-17T07:01:49;100008.94;;;14.22
65316;BMP280;51920;53.952;10.292;2022-09-17T07:04:15;100020.31;;;14.17
65316;BMP280;51920;53.952;10.292;2022-09-17T07:06:42;100019.81;;;14.22
65316;BMP280;51920;53.952;10.292;2022-09-17T07:09:07;100013.63;;;14.22
65316;BMP280;51920;53.952;10.292;2022-09-17T07:11:33;100021.69;;;14.25
65316;BMP280;51920;53.952;10.292;2022-09-17T07:13:59;100018.50;;;14.30
65316;BMP280;51920;53.952;10.292;2022-09-17T07:16:24;100022.78;;;14.48
65316;BMP280;51920;53.952;10.292;2022-09-17T07:18:51;100008.50;;;14.60
65316;BMP280;51920;53.952;10.292;2022-09-17T07:21:17;100018.22;;;14.77
65316;BMP280;51920;53.952;10.292;2022-09-17T07:23:42;100006.78;;;14.82
65316;BMP280;51920;53.952;10.292;2022-09-17T07:26:12;100011.63;;;14.58
65316;BMP280;51920;53.952;10.292;2022-09-17T07:28:38;100023.41;;;14.88
65316;BMP280;51920;53.952;10.292;2022-09-17T07:31:04;100019.06;;;14.74
65316;BMP280;51920;53.952;10.292;2022-09-17T07:33:30;100007.09;;;14.52
65316;BMP280;51920;53.952;10.292;2022-09-17T07:38:22;100026.56;;;14.87
65316;BMP280;51920;53.952;10.292;2022-09-17T07:40:56;100007.38;;;15.07
65316;BMP280;51920;53.952;10.292;2022-09-17T07:43:23;100020.41;;;14.66
65316;BMP280;51920;53.952;10.292;2022-09-17T07:45:50;100012.03;;;14.41
65316;BMP280;51920;53.952;10.292;2022-09-17T07:48:15;100003.31;;;14.29
65316;BMP280;51920;53.952;10.292;2022-09-17T07:50:40;100002.81;;;14.34
65316;BMP280;51920;53.952;10.292;2022-09-17T07:53:06;99998.00;;;14.42
65316;BMP280;51920;53.952;10.292;2022-09-17T07:55:31;100010.50;;;14.39
65316;BMP280;51920;53.952;10.292;2022-09-17T07:57:56;99995.47;;;14.15
65316;BMP280;51920;53.952;10.292;2022-09-17T08:00:22;99997.91;;;14.46
65316;BMP280;51920;53.952;10.292;2022-09-17T08:02:54;100003.53;;;14.88
65316;BMP280;51920;53.952;10.292;2022-09-17T08:05:20;99991.03;;;14.90
65316;BMP280;51920;53.952;10.292;2022-09-17T08:07:53;100008.72;;;15.15
65316;BMP280;51920;53.952;10.292;2022-09-17T08:10:21;100002.56;;;15.11
65316;BMP280;51920;53.952;10.292;2022-09-17T08:12:48;100014.75;;;15.22
65316;BMP280;51920;53.952;10.292;2022-09-17T08:15:17;100011.84;;;15.30
65316;BMP280;51920;53.952;10.292;2022-09-17T08:17:44;100010.50;;;15.51
65316;BMP280;51920;53.952;10.292;2022-09-17T08:20:10;100001.84;;;15.39
65316;BMP280;51920;53.952;10.292;2022-09-17T08:22:35;100001.34;;;15.28
65316;BMP280;51920;53.952;10.292;2022-09-17T08:25:01;100006.44;;;15.13
65316;BMP280;51920;53.952;10.292;2022-09-17T08:27:31;100002.03;;;15.32
65316;BMP280;51920;53.952;10.292;2022-09-17T08:29:57;99993.31;;;15.08
65316;BMP280;51920;53.952;10.292;2022-09-17T08:32:22;99994.50;;;15.07
65316;BMP280;51920;53.952;10.292;2022-09-17T08:34:48;99991.09;;;15.61
65316;BMP280;51920;53.952;10.292;2022-09-17T08:37:13;99980.59;;;16.02
65316;BMP280;51920;53.952;10.292;2022-09-17T08:39:39;99981.91;;;15.55
65316;BMP280;51920;53.952;10.292;2022-09-17T08:42:26;99980.25;;;16.12
65316;BMP280;51920;53.952;10.292;2022-09-17T08:44:55;99979.47;;;16.63
65316;BMP280;51920;53.952;10.292;2022-09-17T08:47:25;99983.69;;;16.77
65316;BMP280;51920;53.952;10.292;2022-09-17T08:49:55;99986.63;;;17.39
65316;BMP280;51920;53.952;10.292;2022-09-17T08:55:20;99986.25;;;17.50
65316;BMP280;51920;53.952;10.292;2022-09-17T08:58:03;99993.41;;;17.57
65316;BMP280;51920;53.952;10.292;2022-09-17T09:00:38;99958.09;;;16.71
65316;BMP280;51920;53.952;10.292;2022-09-17T09:03:23;99984.28;;;16.46
65316;BMP280;51920;53.952;10.292;2022-09-17T09:05:54;99981.19;;;17.05
65316;BMP280;51920;53.952;10.292;2022-09-17T09:08:25;99991.09;;;17.77
65316;BMP280;51920;53.952;10.292;2022-09-17T09:10:56;99995.22;;;17.82
65316;BMP280;51920;53.952;10.292;2022-09-17T09:13:24;99979.72;;;18.19
65316;BMP280;51920;53.952;10.292;2022-09-17T09:16:05;99988.44;;;18.45
65316;BMP280;51920;53.952;10.292;2022-09-17T09:18:37;99983.63;;;17.46
65316;BMP280;51920;53.952;10.292;2022-09-17T09:21:17;99992.91;;;17.27
65316;BMP280;51920;53.952;10.292;2022-09-17T09:23:56;99990.28;;;18.48
65316;BMP280;51920;53.952;10.292;2022-09-17T09:29:38;99991.75;;;17.59
65316;BMP280;51920;53.952;10.292;2022-09-17T09:34:35;99982.28;;;17.29
65316;BMP280;51920;53.952;10.292;2022-09-17T09:39:38;99987.06;;;17.38
65316;BMP280;51920;53.952;10.292;2022-09-17T09:42:28;99999.88;;;17.94
65316;BMP280;51920;53.952;10.292;2022-09-17T09:45:15;99991.38;;;18.78
65316;BMP280;51920;53.952;10.292;2022-09-17T09:48:10;99992.28;;;19.21
65316;BMP280;51920;53.952;10.292;2022-09-17T09:51:02;99985.28;;;18.84
65316;BMP280;51920;53.952;10.292;2022-09-17T09:56:08;99982.00;;;18.30
65316;BMP280;51920;53.952;10.292;2022-09-17T09:58:37;99981.56;;;18.31
65316;BMP280;51920;53.952;10.292;2022-09-17T10:01:15;99992.84;;;18.24
65316;BMP280;51920;53.952;10.292;2022-09-17T10:03:42;99989.38;;;18.79
65316;BMP280;51920;53.952;10.292;2022-09-17T10:06:11;99985.78;;;18.14
65316;BMP280;51920;53.952;10.292;2022-09-17T10:08:39;99996.72;;;18.05
65316;BMP280;51920;53.952;10.292;2022-09-17T10:11:19;99981.28;;;17.67
65316;BMP280;51920;53.952;10.292;2022-09-17T10:13:44;99990.88;;;17.94
65316;BMP280;51920;53.952;10.292;2022-09-17T10:16:24;99988.06;;;18.16
65316;BMP280;51920;53.952;10.292;2022-09-17T10:19:17;99983.78;;;18.05
65316;BMP280;51920;53.952;10.292;2022-09-17T10:21:43;99980.13;;;17.77
65316;BMP280;51920;53.952;10.292;2022-09-17T10:24:26;99982.97;;;17.42
65316;BMP280;51920;53.952;10.292;2022-09-17T10:26:59;99975.22;;;17.19
65316;BMP280;51920;53.952;10.292;2022-09-17T10:29:25;99971.13;;;17.01
65316;BMP280;51920;53.952;10.292;2022-09-17T10:31:53;99971.28;;;16.85
65316;BMP280;51920;53.952;10.292;2022-09-17T10:34:22;99978.13;;;17.46
65316;BMP280;51920;53.952;10.292;2022-09-17T10:36:48;99964.91;;;17.23
65316;BMP280;51920;53.952;10.292;2022-09-17T10:42:15;99973.38;;;16.81
65316;BMP280;51920;53.952;10.292;2022-09-17T10:44:52;99970.00;;;16.42
65316;BMP280;51920;53.952;10.292;2022-09-17T10:52:35;99968.59;;;16.59
65316;BMP280;51920;53.952;10.292;2022-09-17T10:55:17;99973.50;;;16.30
65316;BMP280;51920;53.952;10.292;2022-09-17T11:03:21;99967.50;;;16.70
65316;BMP280;51920;53.952;10.292;2022-09-17T11:17:30;99967.47;;;17.39
65316;BMP280;51920;53.952;10.292;2022-09-17T11:25:53;99979.84;;;16.14
65316;BMP280;51920;53.952;10.292;2022-09-17T11:28:30;99975.97;;;15.86
65316;BMP280;51920;53.952;10.292;2022-09-17T11:31:19;99982.31;;;15.96
65316;BMP280;51920;53.952;10.292;2022-09-17T11:36:57;99981.00;;;15.45
65316;BMP280;51920;53.952;10.292;2022-09-17T11:39:51;99976.47;;;15.55
65316;BMP280;51920;53.952;10.292;2022-09-17T11:42:23;99984.09;;;15.60
65316;BMP280;51920;53.952;10.292;2022-09-17T11:45:05;99973.44;;;15.79
65316;BMP280;51920;53.952;10.292;2022-09-17T11:47:39;99974.44;;;15.85
65316;BMP280;51920;53.952;10.292;2022-09-17T11:50:17;99969.97;;;15.91
65316;BMP280;51920;53.952;10.292;2022-09-17T11:52:59;99970.63;;;15.82
65316;BMP280;51920;53.952;10.292;2022-09-17T11:58:27;99979.47;;;15.99
65316;BMP280;51920;53.952;10.292;2022-09-17T12:01:01;99969.53;;;16.31
65316;BMP280;51920;53.952;10.292;2022-09-17T12:03:43;99964.47;;;16.55
65316;BMP280;51920;53.952;10.292;2022-09-17T12:06:14;99968.41;;;16.67
65316;BMP280;51920;53.952;10.292;2022-09-17T12:08:53;99958.44;;;16.73
65316;BMP280;51920;53.952;10.292;2022-09-17T12:11:35;99954.59;;;16.70
65316;BMP280;51920;53.952;10.292;2022-09-17T12:14:16;99959.97;;;16.74
65316;BMP280;51920;53.952;10.292;2022-09-17T12:16:45;99961.41;;;16.66
65316;BMP280;51920;53.952;10.292;2022-09-17T12:19:23;99963.00;;;16.76
65316;BMP280;51920;53.952;10.292;2022-09-17T12:21:55;99966.38;;;16.80
65316;BMP280;51920;53.952;10.292;2022-09-17T12:24:24;99968.31;;;16.92
65316;BMP280;51920;53.952;10.292;2022-09-17T12:27:14;99973.38;;;16.81
65316;BMP280;51920;53.952;10.292;2022-09-17T12:32:46;99977.72;;;16.91
65316;BMP280;51920;53.952;10.292;2022-09-17T12:35:20;99971.22;;;16.76
65316;BMP280;51920;53.952;10.292;2022-09-17T12:40:50;99960.59;;;17.13
65316;BMP280;51920;53.952;10.292;2022-09-17T12:48:56;99982.72;;;16.71
65316;BMP280;51920;53.952;10.292;2022-09-17T12:51:53;99993.66;;;15.81
65316;BMP280;51920;53.952;10.292;2022-09-17T12:54:44;100008.56;;;14.89
65316;BMP280;51920;53.952;10.292;2022-09-17T12:59:51;100011.56;;;13.89
65316;BMP280;51920;53.952;10.292;2022-09-17T13:02:41;100004.84;;;13.74
65316;BMP280;51920;53.952;10.292;2022-09-17T13:08:05;100004.44;;;13.32
65316;BMP280;51920;53.952;10.292;2022-09-17T13:13:41;100000.88;;;13.35
65316;BMP280;51920;53.952;10.292;2022-09-17T13:16:35;100006.31;;;13.35
65316;BMP280;51920;53.952;10.292;2022-09-17T13:19:32;99999.78;;;13.32
65316;BMP280;51920;53.952;10.292;2022-09-17T13:22:04;100004.69;;;13.18
65316;BMP280;51920;53.952;10.292;2022-09-17T13:24:32;100008.09;;;12.98
65316;BMP280;51920;53.952;10.292;2022-09-17T13:26:59;100008.50;;;13.00
65316;BMP280;51920;53.952;10.292;2022-09-17T13:37:38;100000.84;;;13.15
65316;BMP280;51920;53.952;10.292;2022-09-17T13:40:18;99994.25;;;13.16
65316;BMP280;51920;53.952;10.292;2022-09-17T13:42:50;100002.22;;;13.27
65316;BMP280;51920;53.952;10.292;2022-09-17T13:45:19;100009.88;;;13.32
65316;BMP280;51920;53.952;10.292;2022-09-17T13:52:59;100000.97;;;13.31
65316;BMP280;51920;53.952;10.292;2022-09-17T13:55:36;100014.97;;;13.30
65316;BMP280;51920;53.952;10.292;2022-09-17T13:58:21;100000.56;;;13.33
65316;BMP280;51920;53.952;10.292;2022-09-17T14:13:55;99995.41;;;13.15
65316;BMP280;51920;53.952;10.292;2022-09-17T14:21:26;99996.66;;;13.34
65316;BMP280;51920;53.952;10.292;2022-09-17T14:24:02;99999.72;;;13.36
65316;BMP280;51920;53.952;10.292;2022-09-17T14:31:43;100004.34;;;13.39
65316;BMP280;51920;53.952;10.292;2022-09-17T14:34:18;100013.44;;;13.29
65316;BMP280;51920;53.952;10.292;2022-09-17T14:36:44;100020.34;;;13.34
65316;BMP280;51920;53.952;10.292;2022-09-17T14:39:16;100020.53;;;13.23
65316;BMP280;51920;53.952;10.292;2022-09-17T14:41:44;100018.47;;;13.07
65316;BMP280;51920;53.952;10.292;2022-09-17T14:44:18;100024.75;;;13.04
65316;BMP280;51920;53.952;10.292;2022-09-17T14:46:54;100027.63;;;12.93
65316;BMP280;51920;53.952;10.292;2022-09-17T14:49:25;100026.88;;;12.89
65316;BMP280;51920;53.952;10.292;2022-09-17T14:51:57;100028.63;;;12.79
65316;BMP280;51920;53.952;10.292;2022-09-17T14:54:26;100025.94;;;12.76
65316;BMP280;51920;53.952;10.292;2022-09-17T14:56:55;100023.66;;;12.74
65316;BMP280;51920;53.952;10.292;2022-09-17T15:04:56;100012.97;;;12.60
65316;BMP280;51920;53.952;10.292;2022-09-17T15:07:23;100006.75;;;12.59
65316;BMP280;51920;53.952;10.292;2022-09-17T15:09:49;100014.69;;;12.46
65316;BMP280;51920;53.952;10.292;2022-09-17T15:12:17;100020.09;;;12.46
65316;BMP280;51920;53.952;10.292;2022-09-17T15:14:45;100021.72;;;12.44
65316;BMP280;51920;53.952;10.292;2022-09-17T15:17:14;100019.72;;;12.48
65316;BMP280;51920;53.952;10.292;2022-09-17T15:19:43;100025.53;;;12.46
65316;BMP280;51920;53.952;10.292;2022-09-17T15:22:25;100031.63;;;12.58
65316;BMP280;51920;53.952;10.292;2022-09-17T15:27:30;100046.09;;;12.78
65316;BMP280;51920;53.952;10.292;2022-09-17T15:30:03;100042.91;;;12.83
65316;BMP280;51920;53.952;10.292;2022-09-17T15:32:31;100032.38;;;12.85
65316;BMP280;51920;53.952;10.292;2022-09-17T15:37:52;100048.13;;;12.98
65316;BMP280;51920;53.952;10.292;2022-09-17T15:43:42;100047.66;;;13.26
65316;BMP280;51920;53.952;10.292;2022-09-17T15:45:43;100059.13;;;13.14
65316;BMP280;51920;53.952;10.292;2022-09-17T15:48:33;100054.81;;;13.17
65316;BMP280;51920;53.952;10.292;2022-09-17T15:51:00;100070.38;;;13.16
65316;BMP280;51920;53.952;10.292;2022-09-17T15:53:28;100074.75;;;13.34
65316;BMP280;51920;53.952;10.292;2022-09-17T15:56:14;100069.13;;;13.44
65316;BMP280;51920;53.952;10.292;2022-09-17T16:08:48;100106.56;;;12.82
65316;BMP280;51920;53.952;10.292;2022-09-17T16:11:14;100109.06;;;12.70
65316;BMP280;51920;53.952;10.292;2022-09-17T16:13:40;100111.06;;;12.35
65316;BMP280;51920;53.952;10.292;2022-09-17T16:16:08;100111.69;;;12.15
65316;BMP280;51920;53.952;10.292;2022-09-17T16:18:38;100118.56;;;11.82
65316;BMP280;51920;53.952;10.292;2022-09-17T16:21:03;100107.16;;;11.56
65316;BMP280;51920;53.952;10.292;2022-09-17T16:23:29;100101.06;;;11.45
65316;BMP280;51920;53.952;10.292;2022-09-17T16:25:55;100121.13;;;11.55
65316;BMP280;51920;53.952;10.292;2022-09-17T16:28:21;100106.53;;;11.42
65316;BMP280;51920;53.952;10.292;2022-09-17T16:30:47;100121.28;;;11.33
65316;BMP280;51920;53.952;10.292;2022-09-17T16:33:14;100133.31;;;11.29
65316;BMP280;51920;53.952;10.292;2022-09-17T16:35:41;100136.50;;;11.13
65316;BMP280;51920;53.952;10.292;2022-09-17T16:38:07;100133.81;;;11.13
65316;BMP280;51920;53.952;10.292;2022-09-17T16:40:33;100126.09;;;11.08
65316;BMP280;51920;53.952;10.292;2022-09-17T16:43:00;100130.69;;;11.14
65316;BMP280;51920;53.952;10.292;2022-09-17T16:45:29;100122.97;;;11.13
65316;BMP280;51920;53.952;10.292;2022-09-17T16:47:55;100115.25;;;11.04